createdAt,value
2018-11-23T00:00:18.636Z,100376.45
2018-11-23T00:02:47.843Z,100386.55
2018-11-23T00:05:16.536Z,100394.31
2018-11-23T00:07:45.348Z,100393.95
2018-11-23T00:10:16.079Z,100392.75
2018-11-23T00:12:44.606Z,100394.04
2018-11-23T00:15:14.467Z,100392.28
2018-11-23T00:17:43.162Z,100390.98
2018-11-23T00:20:16.184Z,100382.41
2018-11-23T00:22:44.598Z,100389.80
2018-11-23T00:25:18.030Z,100390.03
2018-11-23T00:27:46.603Z,100398.37
2018-11-23T00:30:18.672Z,100397.38
2018-11-23T00:32:47.692Z,100394.17
2018-11-23T00:35:18.200Z,100391.34
2018-11-23T00:37:47.080Z,100392.28
2018-11-23T00:40:21.165Z,100380.77
2018-11-23T00:42:50.085Z,100382.87
2018-11-23T00:45:18.930Z,100386.95
2018-11-23T00:47:48.069Z,100382.83
2018-11-23T00:50:18.085Z,100389.41
2018-11-23T00:52:47.333Z,100394.57
2018-11-23T00:55:16.908Z,100401.69
2018-11-23T00:57:45.445Z,100399.69
2018-11-23T01:00:16.517Z,100402.38
2018-11-23T01:02:45.123Z,100404.58
2018-11-23T01:05:15.375Z,100400.98
2018-11-23T01:07:44.428Z,100407.44
2018-11-23T01:10:15.174Z,100402.38
2018-11-23T01:12:44.884Z,100409.66
2018-11-23T01:15:13.528Z,100412.50
2018-11-23T01:17:42.039Z,100419.42
2018-11-23T01:20:16.206Z,100407.98
2018-11-23T01:22:45.220Z,100411.03
2018-11-23T01:25:15.275Z,100412.44
2018-11-23T01:27:44.802Z,100411.97
2018-11-23T01:30:21.831Z,100406.34
2018-11-23T01:32:50.352Z,100401.17
2018-11-23T01:35:18.892Z,100402.11
2018-11-23T01:37:47.366Z,100401.86
2018-11-23T01:40:20.431Z,100402.52
2018-11-23T01:42:49.064Z,100405.98
2018-11-23T01:45:18.395Z,100407.43
2018-11-23T01:47:47.074Z,100405.66
2018-11-23T01:50:20.048Z,100404.53
2018-11-23T01:52:49.297Z,100400.13
2018-11-23T01:55:18.459Z,100387.07
2018-11-23T01:57:47.191Z,100383.28
2018-11-23T02:00:17.552Z,100381.98
2018-11-23T02:02:46.673Z,100378.04
2018-11-23T02:05:15.281Z,100377.93
2018-11-23T02:07:43.798Z,100379.11
2018-11-23T02:10:13.968Z,100373.13
2018-11-23T02:12:42.465Z,100373.95
2018-11-23T02:15:16.619Z,100380.30
2018-11-23T02:17:45.371Z,100377.17
2018-11-23T02:20:15.087Z,100365.08
2018-11-23T02:22:43.562Z,100376.59
2018-11-23T02:25:12.062Z,100366.63
2018-11-23T02:27:40.559Z,100364.39
2018-11-23T02:30:16.613Z,100362.53
2018-11-23T02:32:45.201Z,100362.53
2018-11-23T02:35:14.343Z,100366.41
2018-11-23T02:37:42.832Z,100366.41
2018-11-23T02:40:12.763Z,100363.38
2018-11-23T02:42:41.246Z,100374.15
2018-11-23T02:45:14.041Z,100374.61
2018-11-23T02:47:43.346Z,100369.92
2018-11-23T02:50:11.866Z,100372.61
2018-11-23T02:52:42.379Z,100375.77
2018-11-23T02:55:12.016Z,100372.83
2018-11-23T02:57:40.502Z,100363.98
2018-11-23T03:00:16.418Z,100361.97
2018-11-23T03:02:44.978Z,100369.83
2018-11-23T03:05:17.000Z,100364.85
2018-11-23T03:07:45.614Z,100367.72
2018-11-23T03:10:15.117Z,100358.59
2018-11-23T03:12:44.356Z,100361.04
2018-11-23T03:15:15.092Z,100359.33
2018-11-23T03:17:44.278Z,100364.98
2018-11-23T03:20:14.675Z,100361.04
2018-11-23T03:22:43.136Z,100350.36
2018-11-23T03:25:12.366Z,100349.08
2018-11-23T03:27:40.756Z,100346.50
2018-11-23T03:30:15.315Z,100345.92
2018-11-23T03:32:44.568Z,100349.72
2018-11-23T03:35:13.185Z,100357.34
2018-11-23T03:37:41.962Z,100353.95
2018-11-23T03:40:10.551Z,100356.42
2018-11-23T03:42:39.209Z,100359.92
2018-11-23T03:45:10.209Z,100365.45
2018-11-23T03:47:39.142Z,100361.58
2018-11-23T03:50:09.203Z,100373.55
2018-11-23T03:52:37.714Z,100377.42
2018-11-23T03:55:06.299Z,100375.87
2018-11-23T03:57:35.013Z,100381.75
2018-11-23T04:00:16.880Z,100380.56
2018-11-23T04:05:45.674Z,100383.14
2018-11-23T04:08:14.265Z,100378.56
2018-11-23T04:10:42.699Z,100373.40
2018-11-23T04:13:11.181Z,100364.73
2018-11-23T04:15:39.591Z,100352.19
2018-11-23T04:18:08.059Z,100345.38
2018-11-23T04:20:36.559Z,100336.71
2018-11-23T04:23:05.181Z,100338.36
2018-11-23T04:25:33.586Z,100343.16
2018-11-23T04:28:02.060Z,100341.87
2018-11-23T04:30:30.493Z,100346.67
2018-11-23T04:32:59.090Z,100348.82
2018-11-23T04:35:27.554Z,100348.92
2018-11-23T04:37:55.979Z,100344.27
2018-11-23T04:40:24.437Z,100337.67
2018-11-23T04:42:52.846Z,100331.69
2018-11-23T04:45:21.379Z,100329.47
2018-11-23T04:47:49.849Z,100321.63
2018-11-23T04:50:18.301Z,100321.05
2018-11-23T04:52:46.733Z,100324.28
2018-11-23T04:55:15.192Z,100329.80
2018-11-23T05:00:55.289Z,100328.90
2018-11-23T05:03:23.722Z,100334.52
2018-11-23T05:05:52.334Z,100328.33
2018-11-23T05:08:20.784Z,100321.34
2018-11-23T05:10:49.196Z,100317.73
2018-11-23T05:13:17.627Z,100306.02
2018-11-23T05:15:46.388Z,100303.36
2018-11-23T05:18:14.869Z,100305.83
2018-11-23T05:20:43.469Z,100306.09
2018-11-23T05:23:11.919Z,100316.77
2018-11-23T05:25:40.378Z,100329.58
2018-11-23T05:28:08.814Z,100331.59
2018-11-23T05:30:37.274Z,100323.85
2018-11-23T05:33:05.887Z,100327.61
2018-11-23T05:35:34.357Z,100332.77
2018-11-23T05:38:02.834Z,100340.05
2018-11-23T05:40:31.295Z,100344.27
2018-11-23T05:43:04.326Z,100351.19
2018-11-23T05:45:28.225Z,100346.75
2018-11-23T05:47:56.689Z,100338.94
2018-11-23T05:50:25.694Z,100331.91
2018-11-23T05:52:54.164Z,100338.61
2018-11-23T05:55:22.672Z,100335.49
2018-11-23T05:57:51.605Z,100330.58
2018-11-23T06:00:22.339Z,100331.87
2018-11-23T06:02:50.871Z,100334.45
2018-11-23T06:05:19.365Z,100343.02
2018-11-23T06:07:47.798Z,100335.38
2018-11-23T06:10:17.557Z,100339.97
2018-11-23T06:12:46.000Z,100354.05
2018-11-23T06:15:17.240Z,100356.09
2018-11-23T06:17:46.293Z,100347.89
2018-11-23T06:20:17.279Z,100341.33
2018-11-23T06:22:46.727Z,100341.11
2018-11-23T06:25:21.624Z,100351.00
2018-11-23T06:27:50.105Z,100351.00
2018-11-23T06:30:18.600Z,100339.75
2018-11-23T06:33:04.415Z,100341.39
2018-11-23T06:35:32.876Z,100354.66
2018-11-23T06:38:01.335Z,100359.81
2018-11-23T06:40:30.870Z,100366.52
2018-11-23T06:42:59.333Z,100359.71
2018-11-23T06:45:28.104Z,100359.60
2018-11-23T06:47:56.863Z,100357.41
2018-11-23T06:50:25.392Z,100357.66
2018-11-23T06:52:53.826Z,100360.49
2018-11-23T06:55:22.230Z,100359.95
2018-11-23T06:57:50.768Z,100363.82
2018-11-23T07:00:19.237Z,100370.27
2018-11-23T07:02:48.183Z,100381.42
2018-11-23T07:05:16.647Z,100389.05
2018-11-23T07:07:45.084Z,100379.09
2018-11-23T07:10:13.658Z,100369.41
2018-11-23T07:12:42.067Z,100368.72
2018-11-23T07:15:11.863Z,100357.82
2018-11-23T07:17:40.936Z,100367.50
2018-11-23T07:20:12.366Z,100372.08
2018-11-23T07:22:41.240Z,100368.67
2018-11-23T07:25:11.596Z,100373.95
2018-11-23T07:27:40.324Z,100367.25
2018-11-23T07:30:13.688Z,100365.95
2018-11-23T07:32:42.423Z,100367.14
2018-11-23T07:35:11.183Z,100351.53
2018-11-23T07:37:39.708Z,100348.30
2018-11-23T07:40:26.999Z,100352.20
2018-11-23T07:42:55.921Z,100336.41
2018-11-23T07:45:24.430Z,100333.88
2018-11-23T07:47:53.801Z,100331.46
2018-11-23T07:50:22.353Z,100331.76
2018-11-23T07:52:50.949Z,100330.52
2018-11-23T07:55:19.387Z,100322.31
2018-11-23T07:57:47.854Z,100317.20
2018-11-23T08:00:22.686Z,100316.30
2018-11-23T08:02:51.951Z,100321.52
2018-11-23T08:05:21.580Z,100324.62
2018-11-23T08:07:50.068Z,100327.71
2018-11-23T08:10:18.982Z,100321.02
2018-11-23T08:12:48.679Z,100322.47
2018-11-23T08:15:23.157Z,100324.70
2018-11-23T08:17:51.651Z,100317.81
2018-11-23T08:20:21.237Z,100317.14
2018-11-23T08:22:49.823Z,100321.61
2018-11-23T08:25:19.644Z,100320.00
2018-11-23T08:27:49.376Z,100316.36
2018-11-23T08:30:20.422Z,100314.39
2018-11-23T08:32:48.922Z,100321.91
2018-11-23T08:35:17.411Z,100319.95
2018-11-23T08:37:45.839Z,100320.77
2018-11-23T08:40:19.944Z,100317.48
2018-11-23T08:42:49.160Z,100316.10
2018-11-23T08:45:22.687Z,100318.22
2018-11-23T08:47:51.348Z,100311.63
2018-11-23T08:50:22.718Z,100309.75
2018-11-23T08:52:51.261Z,100324.24
2018-11-23T08:55:20.205Z,100324.13
2018-11-23T08:57:48.639Z,100318.24
2018-11-23T09:00:22.004Z,100317.56
2018-11-23T09:02:52.787Z,100319.91
2018-11-23T09:05:21.463Z,100311.48
2018-11-23T09:07:51.138Z,100314.91
2018-11-23T09:10:21.944Z,100306.44
2018-11-23T09:12:53.198Z,100302.70
2018-11-23T09:15:21.946Z,100303.28
2018-11-23T09:17:50.401Z,100298.71
2018-11-23T09:20:19.232Z,100298.03
2018-11-23T09:22:47.745Z,100296.97
2018-11-23T09:25:17.726Z,100307.08
2018-11-23T09:27:46.188Z,100314.51
2018-11-23T09:30:19.035Z,100312.15
2018-11-23T09:32:48.400Z,100313.23
2018-11-23T09:35:17.012Z,100322.66
2018-11-23T09:37:46.540Z,100321.38
2018-11-23T09:40:17.305Z,100320.66
2018-11-23T09:42:45.856Z,100319.50
2018-11-23T09:45:17.057Z,100310.55
2018-11-23T09:47:46.743Z,100314.56
2018-11-23T09:50:17.492Z,100305.84
2018-11-23T09:52:46.924Z,100305.84
2018-11-23T09:55:15.605Z,100301.95
2018-11-23T09:57:44.078Z,100296.76
2018-11-23T10:00:17.316Z,100293.94
2018-11-23T10:02:46.676Z,100281.81
2018-11-23T10:05:15.848Z,100273.57
2018-11-23T10:07:45.677Z,100273.83
2018-11-23T10:10:15.076Z,100270.98
2018-11-23T10:12:43.780Z,100266.28
2018-11-23T10:15:18.404Z,100254.86
2018-11-23T10:17:46.857Z,100254.61
2018-11-23T10:20:17.506Z,100243.08
2018-11-23T10:22:47.376Z,100239.88
2018-11-23T10:25:17.349Z,100234.43
2018-11-23T10:27:46.321Z,100226.30
2018-11-23T10:30:18.591Z,100213.80
2018-11-23T10:32:48.112Z,100209.87
2018-11-23T10:35:16.581Z,100209.03
2018-11-23T10:37:46.211Z,100207.38
2018-11-23T10:40:16.786Z,100211.25
2018-11-23T10:42:45.427Z,100202.26
2018-11-23T10:45:19.535Z,100203.88
2018-11-23T10:47:50.773Z,100199.76
2018-11-23T10:50:24.488Z,100192.19
2018-11-23T10:52:53.221Z,100184.62
2018-11-23T10:55:26.038Z,100176.73
2018-11-23T10:57:54.664Z,100167.52
2018-11-23T11:00:28.786Z,100165.14
2018-11-23T11:03:03.158Z,100160.29
2018-11-23T11:05:36.182Z,100160.19
2018-11-23T11:08:05.391Z,100149.55
2018-11-23T11:10:33.877Z,100145.28
2018-11-23T11:13:02.498Z,100138.66
2018-11-23T11:15:34.735Z,100132.86
2018-11-23T11:18:03.165Z,100130.50
2018-11-23T11:20:31.637Z,100123.19
2018-11-23T11:23:00.085Z,100115.41
2018-11-23T11:25:28.713Z,100123.19
2018-11-23T11:27:57.133Z,100144.43
2018-11-23T11:30:25.621Z,100135.11
2018-11-23T11:32:54.076Z,100126.70
2018-11-23T11:35:22.527Z,100133.57
2018-11-23T11:37:50.995Z,100127.91
2018-11-23T11:40:20.033Z,100119.16
2018-11-23T11:42:48.534Z,100112.53
2018-11-23T11:45:18.135Z,100111.45
2018-11-23T11:47:47.100Z,100105.23
2018-11-23T11:50:15.735Z,100107.55
2018-11-23T11:52:45.534Z,100109.08
2018-11-23T11:55:15.315Z,100107.78
2018-11-23T11:57:44.426Z,100103.89
2018-11-23T12:00:16.866Z,100102.45
2018-11-23T12:02:45.299Z,100097.74
2018-11-23T12:05:14.059Z,100103.27
2018-11-23T12:07:42.628Z,100098.42
2018-11-23T12:10:18.730Z,100102.19
2018-11-23T12:12:47.159Z,100103.00
2018-11-23T12:15:16.109Z,100102.89
2018-11-23T12:17:44.517Z,100098.19
2018-11-23T12:20:15.184Z,100092.62
2018-11-23T12:22:43.927Z,100085.31
2018-11-23T12:25:12.356Z,100076.36
2018-11-23T12:27:40.869Z,100079.44
2018-11-23T12:30:13.227Z,100076.50
2018-11-23T12:32:42.428Z,100068.03
2018-11-23T12:35:12.461Z,100067.18
2018-11-23T12:37:41.031Z,100071.69
2018-11-23T12:40:11.434Z,100072.78
2018-11-23T12:42:40.265Z,100069.23
2018-11-23T12:45:11.798Z,100062.79
2018-11-23T12:47:44.046Z,100057.53
2018-11-23T12:50:16.865Z,100049.85
2018-11-23T12:52:45.535Z,100048.55
2018-11-23T12:55:14.582Z,100044.12
2018-11-23T12:57:43.235Z,100047.67
2018-11-23T13:00:18.915Z,100033.64
2018-11-23T13:02:49.309Z,100030.70
2018-11-23T13:05:18.209Z,100038.83
2018-11-23T13:07:46.924Z,100040.02
2018-11-23T13:10:15.807Z,100041.18
2018-11-23T13:12:44.423Z,100032.78
2018-11-23T13:15:12.931Z,100031.00
2018-11-23T13:17:41.458Z,100020.49
2018-11-23T13:20:12.504Z,100020.49
2018-11-23T13:22:41.039Z,100019.09
2018-11-23T13:25:15.173Z,100012.23
2018-11-23T13:27:43.840Z,100014.63
2018-11-23T13:30:16.350Z,100014.63
2018-11-23T13:32:44.831Z,100012.50
2018-11-23T13:35:15.050Z,100016.06
2018-11-23T13:37:43.572Z,100016.53
2018-11-23T13:40:14.899Z,100010.05
2018-11-23T13:42:43.750Z,100008.41
2018-11-23T13:45:13.575Z,99998.72
2018-11-23T13:47:42.182Z,99987.38
2018-11-23T13:50:12.782Z,99986.56
2018-11-23T13:52:42.034Z,99990.80
2018-11-23T13:55:10.518Z,99992.09
2018-11-23T13:57:38.985Z,99991.13
2018-11-23T14:00:16.701Z,99984.78
2018-11-23T14:02:45.622Z,99981.84
2018-11-23T14:05:15.700Z,99992.09
2018-11-23T14:07:46.111Z,99992.70
2018-11-23T14:10:16.823Z,99996.46
2018-11-23T14:12:45.744Z,99984.44
2018-11-23T14:15:15.716Z,99986.36
2018-11-23T14:17:45.137Z,99981.65
2018-11-23T14:20:18.129Z,99980.12
2018-11-23T14:22:46.681Z,99974.25
2018-11-23T14:25:16.533Z,99971.08
2018-11-23T14:27:45.514Z,99959.06
2018-11-23T14:30:16.828Z,99969.78
2018-11-23T14:32:45.348Z,99973.67
2018-11-23T14:35:16.530Z,99976.06
2018-11-23T14:37:45.899Z,99979.61
2018-11-23T14:40:14.694Z,99976.58
2018-11-23T14:42:44.193Z,99980.75
2018-11-23T14:45:16.882Z,99975.46
2018-11-23T14:47:46.025Z,99973.14
2018-11-23T14:50:18.346Z,99973.66
2018-11-23T14:52:48.507Z,99974.85
2018-11-23T14:55:21.154Z,99975.12
2018-11-23T14:57:49.720Z,99973.93
2018-11-23T15:00:24.626Z,99977.48
2018-11-23T15:02:54.472Z,99975.16
2018-11-23T15:05:22.915Z,99968.33
2018-11-23T15:07:51.689Z,99966.80
2018-11-23T15:10:22.427Z,99965.64
2018-11-23T15:12:53.064Z,99955.06
2018-11-23T15:15:23.596Z,99954.34
2018-11-23T15:17:52.846Z,99949.98
2018-11-23T15:20:23.742Z,99942.34
2018-11-23T15:22:56.165Z,99938.11
2018-11-23T15:25:24.704Z,99929.04
2018-11-23T15:27:55.883Z,99929.72
2018-11-23T15:30:32.864Z,99921.47
2018-11-23T15:33:02.283Z,99930.33
2018-11-23T15:35:32.929Z,99919.32
2018-11-23T15:38:01.531Z,99925.48
2018-11-23T15:40:31.003Z,99921.02
2018-11-23T15:43:01.066Z,99910.58
2018-11-23T15:45:30.607Z,99912.59
2018-11-23T15:47:59.627Z,99911.91
2018-11-23T15:50:31.591Z,99913.20
2018-11-23T15:53:00.285Z,99910.03
2018-11-23T15:55:31.324Z,99913.50
2018-11-23T15:58:01.495Z,99920.32
2018-11-23T16:00:32.267Z,99925.23
2018-11-23T16:03:01.257Z,99922.98
2018-11-23T16:05:29.830Z,99915.11
2018-11-23T16:08:00.827Z,99900.52
2018-11-23T16:10:30.712Z,99905.94
2018-11-23T16:13:00.430Z,99916.23
2018-11-23T16:15:29.308Z,99906.44
2018-11-23T16:17:58.204Z,99898.33
2018-11-23T16:20:30.160Z,99895.13
2018-11-23T16:23:00.287Z,99889.71
2018-11-23T16:25:28.762Z,99885.08
2018-11-23T16:27:59.472Z,99885.80
2018-11-23T16:30:32.565Z,99879.66
2018-11-23T16:33:22.684Z,99880.21
2018-11-23T16:35:51.216Z,99877.52
2018-11-23T16:38:21.863Z,99876.90
2018-11-23T16:40:54.017Z,99870.63
2018-11-23T16:43:22.504Z,99859.31
2018-11-23T16:45:51.136Z,99854.95
2018-11-23T16:48:21.017Z,99856.95
2018-11-23T16:50:52.706Z,99849.05
2018-11-23T16:53:21.177Z,99850.68
2018-11-23T16:55:49.890Z,99843.25
2018-11-23T16:58:18.350Z,99841.95
2018-11-23T17:00:47.558Z,99838.54
2018-11-23T17:03:18.712Z,99829.88
2018-11-23T17:05:48.647Z,99821.81
2018-11-23T17:08:17.169Z,99816.33
2018-11-23T17:10:45.634Z,99812.95
2018-11-23T17:13:14.123Z,99807.81
2018-11-23T17:15:42.629Z,99804.78
2018-11-23T17:18:11.101Z,99800.45
2018-11-23T17:20:40.262Z,99780.00
2018-11-23T17:23:09.829Z,99773.30
2018-11-23T17:25:38.341Z,99759.19
2018-11-23T17:28:08.373Z,99748.02
2018-11-23T17:30:37.324Z,99754.15
2018-11-23T17:33:06.025Z,99761.71
2018-11-23T17:35:34.817Z,99763.96
2018-11-23T17:38:03.283Z,99769.24
2018-11-23T17:40:33.752Z,99755.48
2018-11-23T17:43:02.218Z,99755.72
2018-11-23T17:45:31.990Z,99751.22
2018-11-23T17:48:00.760Z,99742.84
2018-11-23T17:50:31.026Z,99740.92
2018-11-23T17:52:59.812Z,99754.72
2018-11-23T17:55:28.434Z,99739.63
2018-11-23T17:57:57.187Z,99738.81
2018-11-23T18:00:38.840Z,99738.34
2018-11-23T18:03:01.659Z,99733.87
2018-11-23T18:05:30.922Z,99736.66
2018-11-23T18:08:00.487Z,99733.12
2018-11-23T18:10:30.257Z,99724.39
2018-11-23T18:13:00.282Z,99730.77
2018-11-23T18:15:30.119Z,99734.37
2018-11-23T18:18:06.355Z,99736.01
2018-11-23T18:20:36.564Z,99746.03
2018-11-23T18:23:06.018Z,99747.13
2018-11-23T18:25:38.215Z,99729.95
2018-11-23T18:28:07.047Z,99723.67
2018-11-23T18:30:35.562Z,99728.23
2018-11-23T18:33:07.306Z,99726.70
2018-11-23T18:35:35.947Z,99721.38
2018-11-23T18:38:06.410Z,99728.53
2018-11-23T18:40:37.410Z,99724.41
2018-11-23T18:43:05.056Z,99721.20
2018-11-23T18:45:38.958Z,99727.06
2018-11-23T18:48:08.058Z,99730.94
2018-11-23T18:50:36.538Z,99734.83
2018-11-23T18:53:05.735Z,99729.98
2018-11-23T18:55:34.646Z,99733.42
2018-11-23T18:58:03.316Z,99732.13
2018-11-23T19:00:32.213Z,99733.77
2018-11-23T19:03:00.882Z,99726.19
2018-11-23T19:05:31.202Z,99723.80
2018-11-23T19:07:59.833Z,99723.22
2018-11-23T19:10:28.346Z,99717.55
2018-11-23T19:12:56.744Z,99716.60
2018-11-23T19:15:25.925Z,99714.20
2018-11-23T19:17:54.054Z,99712.33
2018-11-23T19:20:23.382Z,99714.30
2018-11-23T19:22:54.253Z,99714.63
2018-11-23T19:25:22.895Z,99710.07
2018-11-23T19:27:51.421Z,99723.37
2018-11-23T19:30:28.139Z,99718.66
2018-11-23T19:32:50.714Z,99725.00
2018-11-23T19:35:19.663Z,99720.30
2018-11-23T19:37:48.235Z,99718.66
2018-11-23T19:40:16.710Z,99718.33
2018-11-23T19:42:45.504Z,99715.50
2018-11-23T19:45:15.540Z,99709.73
2018-11-23T19:47:44.239Z,99705.51
2018-11-23T19:50:16.371Z,99711.37
2018-11-23T19:52:45.331Z,99696.30
2018-11-23T19:55:15.558Z,99682.24
2018-11-23T19:57:44.171Z,99685.03
2018-11-23T20:00:18.763Z,99682.81
2018-11-23T20:02:47.257Z,99694.81
2018-11-23T20:05:15.778Z,99691.06
2018-11-23T20:07:45.553Z,99685.66
2018-11-23T20:10:16.510Z,99695.00
2018-11-23T20:12:46.259Z,99691.94
2018-11-23T20:15:18.561Z,99697.37
2018-11-23T20:17:47.670Z,99694.48
2018-11-23T20:20:17.025Z,99692.99
2018-11-23T20:22:46.869Z,99679.22
2018-11-23T20:25:18.298Z,99675.53
2018-11-23T20:27:48.171Z,99676.44
2018-11-23T20:30:18.046Z,99679.70
2018-11-23T20:32:46.702Z,99681.70
2018-11-23T20:35:20.096Z,99680.27
2018-11-23T20:37:48.816Z,99668.95
2018-11-23T20:40:20.927Z,99670.39
2018-11-23T20:42:49.430Z,99675.70
2018-11-23T20:45:18.009Z,99668.38
2018-11-23T20:47:46.791Z,99677.34
2018-11-23T20:50:16.622Z,99677.45
2018-11-23T20:52:45.297Z,99666.41
2018-11-23T20:55:16.713Z,99660.41
2018-11-23T20:57:45.354Z,99667.71
2018-11-23T21:00:15.291Z,99655.57
2018-11-23T21:02:44.539Z,99653.27
2018-11-23T21:05:14.558Z,99647.38
2018-11-23T21:07:46.238Z,99638.67
2018-11-23T21:10:21.613Z,99641.27
2018-11-23T21:12:50.478Z,99629.33
2018-11-23T21:15:30.665Z,99623.66
2018-11-23T21:18:02.958Z,99631.04
2018-11-23T21:20:31.584Z,99619.09
2018-11-23T21:23:00.204Z,99614.95
2018-11-23T21:25:29.702Z,99609.82
2018-11-23T21:27:58.551Z,99602.61
2018-11-23T21:30:27.009Z,99601.17
2018-11-23T21:32:56.235Z,99593.25
2018-11-23T21:35:25.238Z,99597.02
2018-11-23T21:37:53.719Z,99598.66
2018-11-23T21:40:22.215Z,99593.66
2018-11-23T21:42:50.648Z,99597.89
2018-11-23T21:45:20.068Z,99594.33
2018-11-23T21:47:48.561Z,99592.92
2018-11-23T21:50:25.016Z,99591.96
2018-11-23T21:52:46.905Z,99587.45
2018-11-23T21:55:19.962Z,99587.05
2018-11-23T21:57:48.524Z,99585.45
2018-11-23T22:00:17.064Z,99581.31
2018-11-23T22:02:45.909Z,99583.61
2018-11-23T22:05:14.458Z,99579.23
2018-11-23T22:07:42.931Z,99580.53
2018-11-23T22:10:13.264Z,99580.83
2018-11-23T22:12:41.770Z,99576.94
2018-11-23T22:15:15.210Z,99572.09
2018-11-23T22:17:47.580Z,99569.98
2018-11-23T22:20:17.672Z,99577.27
2018-11-23T22:22:46.312Z,99578.23
2018-11-23T22:25:16.281Z,99572.72
2018-11-23T22:27:44.805Z,99572.23
2018-11-23T22:30:17.069Z,99577.90
2018-11-23T22:32:45.595Z,99575.30
2018-11-23T22:35:14.177Z,99565.39
2018-11-23T22:37:42.597Z,99567.57
2018-11-23T22:40:12.833Z,99568.23
2018-11-23T22:42:43.847Z,99570.91
2018-11-23T22:45:13.537Z,99569.46
2018-11-23T22:47:42.428Z,99564.97
2018-11-23T22:50:15.541Z,99559.31
2018-11-23T22:52:44.067Z,99562.09
2018-11-23T22:55:13.954Z,99568.91
2018-11-23T22:57:42.452Z,99563.53
2018-11-23T23:00:40.199Z,99571.09
2018-11-23T23:03:08.999Z,99574.65
2018-11-23T23:05:37.425Z,99574.72
2018-11-23T23:08:06.265Z,99582.61
2018-11-23T23:10:34.682Z,99583.83
2018-11-23T23:13:03.185Z,99599.30
2018-11-23T23:15:31.777Z,99600.34
2018-11-23T23:18:00.194Z,99600.77
2018-11-23T23:20:28.763Z,99606.09
2018-11-23T23:22:57.211Z,99591.13
2018-11-23T23:25:25.669Z,99590.55
2018-11-23T23:27:57.622Z,99588.77
2018-11-23T23:30:26.139Z,99582.14
2018-11-23T23:32:54.588Z,99573.89
2018-11-23T23:35:23.045Z,99584.92
2018-11-23T23:37:51.570Z,99591.07
2018-11-23T23:40:20.031Z,99587.66
2018-11-23T23:42:48.639Z,99584.73
2018-11-23T23:45:17.972Z,99582.33
2018-11-23T23:47:46.588Z,99580.30
2018-11-23T23:50:21.595Z,99578.71
2018-11-23T23:52:50.860Z,99581.05
2018-11-23T23:55:19.361Z,99578.50
2018-11-23T23:57:48.314Z,99583.76
